Time;durP1;ratioP1;P1;durP2;ratioP2;P2;SDS_P1;SDS_P2;PMS_P1;PMS_P2;Temp;Humidity;BMP_temperature;BMP_pressure;BME280_temperature;BME280_humidity;BME280_pressure;Samples;Min_cycle;Max_cycle;Signal;HPM_P1;HPM_P2
2021/12/03 00:00:00;;;;;;;48.13;26.27;;;-0.50;99.90;;;;;;5015332;28;20172;-63
2021/12/03 00:02:26;;;;;;;44.50;25.10;;;-0.50;99.90;;;;;;5014856;28;20669;-64
2021/12/03 00:04:52;;;;;;;49.70;27.47;;;-0.50;99.90;;;;;;4997768;28;20172;-63
2021/12/03 00:07:18;;;;;;;47.67;28.77;;;-0.50;99.90;;;;;;5015323;28;20234;-63
2021/12/03 00:09:44;;;;;;;49.00;30.33;;;-0.60;99.90;;;;;;4997570;28;20191;-63
2021/12/03 00:12:10;;;;;;;44.67;27.33;;;-0.60;99.90;;;;;;4997629;28;20232;-63
2021/12/03 00:14:36;;;;;;;50.27;28.60;;;-0.60;99.90;;;;;;5015461;28;20230;-63
2021/12/03 00:17:03;;;;;;;54.13;28.87;;;-0.60;99.90;;;;;;5015041;28;20590;-63
2021/12/03 00:19:29;;;;;;;52.63;27.87;;;-0.60;99.90;;;;;;5015279;28;20163;-63
2021/12/03 00:21:54;;;;;;;49.20;30.10;;;-0.60;99.90;;;;;;5014987;28;20250;-63
2021/12/03 00:24:20;;;;;;;51.10;28.67;;;-0.60;99.90;;;;;;5014728;28;20188;-63
2021/12/03 00:26:46;;;;;;;45.37;28.27;;;-0.60;99.90;;;;;;5014844;28;20557;-63
2021/12/03 00:29:12;;;;;;;57.23;29.43;;;-0.60;99.90;;;;;;5014864;28;20187;-63
2021/12/03 00:31:38;;;;;;;53.03;30.53;;;-0.60;99.90;;;;;;5014688;28;20207;-63
2021/12/03 00:34:04;;;;;;;51.67;30.57;;;-0.60;99.90;;;;;;5014595;28;20199;-63
2021/12/03 00:36:29;;;;;;;47.63;28.00;;;-0.60;99.90;;;;;;4996723;28;20314;-63
2021/12/03 00:38:59;;;;;;;48.90;29.20;;;-0.60;99.90;;;;;;5014696;28;20175;-63
2021/12/03 00:41:28;;;;;;;49.63;29.30;;;-0.60;99.90;;;;;;5014239;28;20674;-63
2021/12/03 00:43:54;;;;;;;48.70;27.47;;;-0.60;99.90;;;;;;5014361;28;20302;-63
2021/12/03 00:46:21;;;;;;;54.30;29.83;;;-0.60;99.90;;;;;;5014423;28;20204;-63
2021/12/03 00:48:50;;;;;;;61.90;33.50;;;-0.60;99.90;;;;;;4996561;28;20183;-63
2021/12/03 00:51:18;;;;;;;64.13;32.17;;;-0.40;99.90;;;;;;5014316;28;20192;-63
2021/12/03 00:53:45;;;;;;;57.63;29.60;;;-0.40;99.90;;;;;;5014019;28;20810;-63
2021/12/03 00:56:12;;;;;;;58.07;31.20;;;-0.40;99.90;;;;;;5014323;28;20254;-63
2021/12/03 00:58:38;;;;;;;60.80;32.17;;;-0.40;99.90;;;;;;5013958;28;20680;-63
2021/12/03 01:01:05;;;;;;;61.53;32.50;;;-0.30;99.90;;;;;;5014088;28;20192;-63
2021/12/03 01:03:32;;;;;;;64.03;30.80;;;-0.30;99.90;;;;;;5014116;28;20191;-64
2021/12/03 01:05:58;;;;;;;58.43;30.67;;;-0.20;99.90;;;;;;5014001;28;20180;-63
2021/12/03 01:08:24;;;;;;;57.87;30.93;;;-0.20;99.90;;;;;;5014109;28;20250;-63
2021/12/03 01:10:50;;;;;;;56.47;31.17;;;-0.20;99.90;;;;;;5013688;28;20191;-64
2021/12/03 01:13:17;;;;;;;63.87;31.23;;;-0.20;99.90;;;;;;5014007;28;20268;-63
2021/12/03 01:15:43;;;;;;;65.33;31.23;;;-0.20;99.90;;;;;;5013206;28;20184;-63
2021/12/03 01:18:10;;;;;;;60.60;32.20;;;-0.10;99.90;;;;;;5013754;28;20172;-63
2021/12/03 01:20:37;;;;;;;63.03;31.80;;;-0.10;99.90;;;;;;5013833;28;20179;-63
2021/12/03 01:23:05;;;;;;;62.40;30.77;;;-0.10;99.90;;;;;;4995928;28;20184;-64
2021/12/03 01:25:31;;;;;;;65.10;30.87;;;0.00;99.90;;;;;;5013557;28;20203;-63
2021/12/03 01:27:59;;;;;;;60.23;31.03;;;0.00;99.90;;;;;;5013614;28;20203;-63
2021/12/03 01:30:25;;;;;;;58.67;27.70;;;0.00;99.90;;;;;;4995845;28;20180;-63
2021/12/03 01:32:51;;;;;;;62.97;30.83;;;0.10;99.90;;;;;;5013530;28;20237;-63
2021/12/03 01:35:18;;;;;;;59.60;29.83;;;0.10;99.90;;;;;;4995761;28;20203;-63
2021/12/03 01:37:43;;;;;;;64.10;30.53;;;0.10;99.90;;;;;;5013413;28;20171;-63
2021/12/03 01:40:13;;;;;;;61.10;29.80;;;0.10;99.90;;;;;;5013462;28;20233;-63
2021/12/03 01:42:41;;;;;;;59.97;31.37;;;0.10;99.90;;;;;;5013212;28;20238;-63
2021/12/03 01:45:08;;;;;;;66.70;31.27;;;0.10;99.90;;;;;;5013311;28;20291;-63
2021/12/03 01:47:35;;;;;;;63.87;31.63;;;0.10;99.90;;;;;;4995678;28;20207;-63
2021/12/03 01:50:00;;;;;;;59.33;32.17;;;0.10;99.90;;;;;;4995675;28;20211;-63
2021/12/03 01:52:26;;;;;;;66.67;31.67;;;0.20;99.90;;;;;;5013183;28;20631;-63
2021/12/03 01:54:53;;;;;;;76.33;32.83;;;0.10;99.90;;;;;;5013089;28;20230;-63
2021/12/03 01:57:19;;;;;;;69.23;31.97;;;0.20;99.90;;;;;;5013962;28;20576;-63
2021/12/03 01:59:45;;;;;;;62.67;30.70;;;0.20;99.90;;;;;;5013210;28;20561;-63
2021/12/03 02:02:12;;;;;;;60.43;31.37;;;0.20;99.90;;;;;;4995339;28;20256;-63
2021/12/03 02:04:38;;;;;;;62.77;30.80;;;0.30;99.90;;;;;;5014077;28;20304;-63
2021/12/03 02:07:04;;;;;;;66.67;31.37;;;0.30;99.90;;;;;;5013097;28;20176;-63
2021/12/03 02:09:30;;;;;;;72.67;30.13;;;0.30;99.90;;;;;;5012995;28;20179;-63
2021/12/03 02:11:55;;;;;;;58.27;28.40;;;0.30;99.90;;;;;;5012892;28;20200;-63
2021/12/03 02:14:21;;;;;;;54.17;27.93;;;0.30;99.90;;;;;;5013091;28;20196;-63
2021/12/03 02:16:47;;;;;;;65.30;31.47;;;0.40;99.90;;;;;;4995421;28;20168;-63
2021/12/03 02:19:13;;;;;;;64.03;27.90;;;0.40;99.90;;;;;;5013511;28;20653;-63
2021/12/03 02:21:39;;;;;;;64.47;30.10;;;0.40;99.90;;;;;;4995271;28;20214;-63
2021/12/03 02:24:05;;;;;;;59.20;27.63;;;0.30;99.90;;;;;;5013164;28;20168;-63
2021/12/03 02:26:31;;;;;;;65.57;28.03;;;0.30;99.90;;;;;;4996937;28;20318;-63
2021/12/03 02:28:57;;;;;;;53.13;26.90;;;0.40;99.90;;;;;;5017019;28;20721;-63
2021/12/03 02:31:24;;;;;;;58.97;29.90;;;0.40;99.90;;;;;;5016600;28;20600;-64
2021/12/03 02:33:51;;;;;;;62.13;28.47;;;0.40;99.90;;;;;;5017053;28;20271;-63
2021/12/03 02:36:18;;;;;;;51.57;26.80;;;0.40;99.90;;;;;;5016608;28;20586;-63
2021/12/03 02:38:45;;;;;;;55.90;28.07;;;0.40;99.90;;;;;;5017117;28;20259;-63
2021/12/03 02:41:12;;;;;;;64.77;28.47;;;0.40;99.90;;;;;;5016443;28;20196;-63
2021/12/03 02:43:38;;;;;;;52.47;27.23;;;0.40;99.90;;;;;;4998903;28;20180;-63
2021/12/03 02:46:03;;;;;;;62.47;28.93;;;0.50;99.90;;;;;;5016552;28;20223;-63
2021/12/03 02:48:31;;;;;;;55.97;28.30;;;0.50;99.90;;;;;;5016457;28;20251;-63
2021/12/03 02:50:59;;;;;;;56.90;26.03;;;0.50;99.90;;;;;;5016276;28;20219;-63
2021/12/03 02:53:25;;;;;;;60.07;28.73;;;0.50;99.90;;;;;;4998699;28;20184;-63
2021/12/03 02:55:51;;;;;;;57.60;29.50;;;0.60;99.90;;;;;;5016218;28;20550;-63
2021/12/03 02:58:18;;;;;;;58.90;29.53;;;0.60;99.90;;;;;;5016205;28;20180;-63
2021/12/03 03:00:45;;;;;;;60.37;31.93;;;0.60;99.90;;;;;;5016082;28;20194;-63
2021/12/03 03:03:10;;;;;;;59.97;30.97;;;0.60;99.90;;;;;;5016157;28;20754;-63
2021/12/03 03:05:36;;;;;;;56.00;31.43;;;0.70;99.90;;;;;;5016287;28;20255;-63
2021/12/03 03:08:02;;;;;;;59.27;31.90;;;0.70;99.90;;;;;;5016300;28;20552;-63
2021/12/03 03:10:31;;;;;;;60.40;31.67;;;0.60;99.90;;;;;;5016316;28;20597;-63
2021/12/03 03:12:59;;;;;;;59.20;31.13;;;0.70;99.90;;;;;;5016463;28;20658;-63
2021/12/03 03:15:25;;;;;;;58.37;30.43;;;0.70;99.90;;;;;;5015815;28;20278;-63
2021/12/03 03:17:52;;;;;;;52.10;29.53;;;0.70;99.90;;;;;;4998264;28;20180;-63
2021/12/03 03:20:19;;;;;;;55.00;28.20;;;0.70;99.90;;;;;;5015865;28;20209;-63
2021/12/03 03:22:47;;;;;;;49.87;28.70;;;0.70;99.90;;;;;;5015769;28;20203;-63
2021/12/03 03:25:16;;;;;;;53.20;29.43;;;0.70;99.90;;;;;;5015732;28;20180;-63
2021/12/03 03:27:43;;;;;;;47.93;28.90;;;0.70;99.90;;;;;;5015710;28;20180;-63
2021/12/03 03:30:12;;;;;;;46.83;27.67;;;0.70;99.90;;;;;;5015959;28;20533;-63
2021/12/03 03:32:38;;;;;;;52.97;27.77;;;0.70;99.90;;;;;;5015559;28;20682;-63
2021/12/03 03:35:05;;;;;;;46.73;28.60;;;0.70;99.90;;;;;;5016179;28;20204;-63
2021/12/03 03:37:31;;;;;;;49.63;29.30;;;0.70;99.90;;;;;;5014609;28;20180;-62
2021/12/03 03:39:57;;;;;;;49.47;28.67;;;0.80;99.90;;;;;;5015400;28;20186;-62
2021/12/03 03:42:22;;;;;;;42.87;26.17;;;0.80;99.90;;;;;;5015340;28;20188;-62
2021/12/03 03:44:48;;;;;;;45.80;26.23;;;0.80;99.90;;;;;;4997760;28;20191;-62
2021/12/03 03:47:15;;;;;;;52.13;29.53;;;0.80;99.90;;;;;;5015638;28;20598;-62
2021/12/03 03:49:41;;;;;;;48.30;26.80;;;0.80;99.90;;;;;;4997825;28;20230;-62
2021/12/03 03:52:08;;;;;;;43.37;26.67;;;0.80;99.90;;;;;;4997527;28;20580;-63
2021/12/03 03:54:33;;;;;;;48.73;27.50;;;0.80;99.90;;;;;;5015338;28;20199;-63
2021/12/03 03:57:00;;;;;;;44.93;27.13;;;0.80;99.90;;;;;;4997556;28;20180;-62
2021/12/03 03:59:27;;;;;;;42.80;25.60;;;0.80;99.90;;;;;;4997525;28;20183;-63
2021/12/03 04:01:53;;;;;;;44.17;25.30;;;0.90;99.90;;;;;;5014994;28;20196;-62
2021/12/03 04:04:20;;;;;;;51.27;29.23;;;0.90;99.90;;;;;;5014899;28;20198;-62
2021/12/03 04:06:46;;;;;;;58.73;28.50;;;0.90;99.90;;;;;;4997259;28;20190;-62
2021/12/03 04:09:12;;;;;;;56.60;30.30;;;0.90;99.90;;;;;;5015070;28;20184;-63
2021/12/03 04:11:37;;;;;;;59.77;32.13;;;0.90;99.90;;;;;;5015017;28;20258;-62
2021/12/03 04:14:04;;;;;;;66.37;32.40;;;1.00;99.90;;;;;;5014647;28;20180;-62
2021/12/03 04:16:31;;;;;;;69.30;34.43;;;1.00;99.90;;;;;;4997172;28;20533;-62
2021/12/03 04:18:58;;;;;;;70.80;34.47;;;1.10;99.90;;;;;;5014891;28;20622;-62
2021/12/03 04:21:24;;;;;;;61.90;32.97;;;1.10;99.90;;;;;;5014502;28;20187;-62
2021/12/03 04:23:50;;;;;;;66.00;32.30;;;1.10;99.90;;;;;;4997076;28;20548;-62
2021/12/03 04:26:16;;;;;;;67.40;33.83;;;1.10;99.90;;;;;;5014504;28;20626;-62
2021/12/03 04:28:42;;;;;;;65.00;34.07;;;1.10;99.90;;;;;;4996938;28;20237;-62
2021/12/03 04:31:07;;;;;;;67.73;34.33;;;1.10;99.90;;;;;;5014946;28;20200;-62
2021/12/03 04:33:33;;;;;;;70.70;34.73;;;1.10;99.90;;;;;;5014668;28;20180;-62
2021/12/03 04:35:59;;;;;;;74.47;36.33;;;1.10;99.90;;;;;;5014331;28;20203;-62
2021/12/03 04:38:25;;;;;;;71.07;35.10;;;1.20;99.90;;;;;;5014314;28;20171;-62
2021/12/03 04:40:50;;;;;;;65.27;32.53;;;1.10;99.90;;;;;;5014679;28;20199;-62
2021/12/03 04:43:16;;;;;;;64.43;30.93;;;1.20;99.90;;;;;;5014363;28;20254;-62
2021/12/03 04:45:42;;;;;;;66.20;32.47;;;1.20;99.90;;;;;;5014654;28;20184;-62
2021/12/03 04:48:08;;;;;;;64.53;31.87;;;1.20;99.90;;;;;;5014109;28;20650;-62
2021/12/03 04:50:37;;;;;;;71.27;32.53;;;1.20;99.90;;;;;;5013990;28;20186;-63
2021/12/03 04:53:04;;;;;;;63.90;32.77;;;1.20;99.90;;;;;;5014043;28;20175;-62
2021/12/03 04:55:30;;;;;;;58.83;32.43;;;1.20;99.90;;;;;;5013982;28;20286;-62
2021/12/03 04:57:56;;;;;;;57.70;32.17;;;1.20;99.90;;;;;;5014220;28;20204;-62
2021/12/03 05:00:29;;;;;;;69.43;32.43;;;1.20;99.90;;;;;;5014207;28;20669;-62
2021/12/03 05:02:56;;;;;;;55.97;31.13;;;1.20;99.90;;;;;;5014043;28;20192;-62
2021/12/03 05:05:24;;;;;;;60.67;32.10;;;1.20;99.90;;;;;;5013979;28;20184;-62
2021/12/03 05:08:02;;;;;;;68.37;33.27;;;1.30;99.90;;;;;;5014205;28;20176;-63
2021/12/03 05:10:30;;;;;;;59.13;32.37;;;1.30;99.90;;;;;;5014221;28;20218;-62
2021/12/03 05:13:06;;;;;;;62.60;30.23;;;1.30;99.90;;;;;;5014096;28;20180;-63
2021/12/03 05:15:33;;;;;;;59.87;31.57;;;1.30;99.90;;;;;;5013913;28;20638;-63
2021/12/03 05:18:00;;;;;;;64.57;33.60;;;1.30;99.90;;;;;;5016008;28;20233;-66
2021/12/03 05:20:26;;;;;;;57.30;32.73;;;1.30;99.90;;;;;;5013644;28;20186;-66
2021/12/03 05:22:53;;;;;;;62.77;33.27;;;1.30;99.90;;;;;;4995936;28;20204;-66
2021/12/03 05:25:20;;;;;;;57.90;30.73;;;1.30;99.90;;;;;;5014140;28;20263;-66
2021/12/03 05:27:45;;;;;;;57.93;32.20;;;1.30;99.90;;;;;;5013572;28;20184;-66
2021/12/03 05:30:11;;;;;;;64.13;32.77;;;1.40;99.90;;;;;;5013555;28;20547;-65
2021/12/03 05:32:38;;;;;;;63.77;33.00;;;1.40;99.90;;;;;;5013578;28;20371;-66
2021/12/03 05:35:05;;;;;;;62.20;31.57;;;1.40;99.90;;;;;;5013643;28;20262;-65
2021/12/03 05:37:31;;;;;;;58.23;30.87;;;1.40;99.90;;;;;;5013595;28;20199;-65
2021/12/03 05:39:57;;;;;;;61.23;30.53;;;1.40;99.90;;;;;;5014018;28;20180;-66
2021/12/03 05:42:22;;;;;;;59.60;30.73;;;1.40;99.90;;;;;;5013675;28;20666;-66
2021/12/03 05:44:48;;;;;;;64.47;32.53;;;1.40;99.90;;;;;;5014292;28;20187;-66
2021/12/03 05:47:14;;;;;;;59.20;32.20;;;1.40;99.90;;;;;;5013603;28;20662;-66
2021/12/03 05:49:40;;;;;;;65.90;31.73;;;1.50;99.90;;;;;;5013547;28;20183;-66
2021/12/03 05:52:06;;;;;;;65.77;33.47;;;1.50;99.90;;;;;;5013494;28;20544;-65
2021/12/03 05:54:32;;;;;;;66.30;30.27;;;1.50;99.90;;;;;;5013458;28;20226;-66
2021/12/03 05:56:57;;;;;;;60.67;30.67;;;1.50;99.90;;;;;;5014088;28;20180;-66
2021/12/03 05:59:23;;;;;;;59.63;30.47;;;1.50;99.90;;;;;;5013461;28;20179;-66
2021/12/03 06:01:49;;;;;;;59.07;30.93;;;1.50;99.90;;;;;;5017820;28;20270;-65
2021/12/03 06:04:15;;;;;;;60.17;31.93;;;1.50;99.90;;;;;;5019971;28;20203;-66
2021/12/03 06:06:40;;;;;;;60.83;32.60;;;1.50;99.90;;;;;;5019989;28;20179;-65
2021/12/03 06:09:06;;;;;;;59.27;31.77;;;1.60;99.90;;;;;;5020227;28;20684;-65
2021/12/03 06:11:32;;;;;;;68.50;33.47;;;1.60;99.90;;;;;;5020093;28;20199;-65
2021/12/03 06:13:59;;;;;;;62.90;33.07;;;1.60;99.90;;;;;;5019998;28;20204;-65
2021/12/03 06:16:25;;;;;;;68.17;34.67;;;1.60;99.90;;;;;;5020343;28;20547;-65
2021/12/03 06:18:51;;;;;;;62.27;32.50;;;1.60;99.90;;;;;;5020651;28;20172;-65
2021/12/03 06:21:17;;;;;;;65.07;34.63;;;1.70;99.90;;;;;;5019828;28;20673;-65
2021/12/03 06:23:43;;;;;;;72.53;34.77;;;1.70;99.90;;;;;;5019822;28;20179;-64
2021/12/03 06:26:10;;;;;;;59.87;33.17;;;1.70;99.90;;;;;;5019998;28;20699;-64
2021/12/03 06:28:39;;;;;;;64.23;33.80;;;1.80;99.90;;;;;;5019704;28;20184;-63
2021/12/03 06:31:05;;;;;;;60.13;31.40;;;1.80;99.90;;;;;;5019408;28;20211;-64
2021/12/03 06:33:31;;;;;;;57.70;32.63;;;1.80;99.90;;;;;;5019641;28;20184;-64
2021/12/03 06:35:57;;;;;;;56.60;32.10;;;1.80;99.90;;;;;;5019809;28;20203;-64
2021/12/03 06:38:23;;;;;;;56.60;31.53;;;1.80;99.90;;;;;;5019937;28;20573;-65
2021/12/03 06:40:51;;;;;;;62.27;31.67;;;1.90;99.90;;;;;;5019813;28;20182;-65
2021/12/03 06:43:18;;;;;;;56.33;30.50;;;1.80;99.90;;;;;;5002048;28;20180;-65
2021/12/03 06:45:44;;;;;;;60.80;30.17;;;1.80;99.90;;;;;;5020414;28;20184;-65
2021/12/03 06:48:09;;;;;;;53.17;29.80;;;1.80;99.90;;;;;;5019628;28;20553;-65
2021/12/03 06:50:36;;;;;;;57.20;29.93;;;1.80;99.90;;;;;;5019700;28;20183;-65
2021/12/03 06:53:05;;;;;;;54.97;29.97;;;1.80;99.90;;;;;;5019827;28;20180;-65
2021/12/03 06:55:45;;;;;;;52.77;30.50;;;1.80;99.90;;;;;;5001739;28;20212;-65
2021/12/03 06:58:12;;;;;;;54.97;29.97;;;1.80;99.90;;;;;;5019819;28;20184;-63
2021/12/03 07:00:37;;;;;;;45.63;28.43;;;1.80;99.90;;;;;;5019662;28;20708;-63
2021/12/03 07:03:03;;;;;;;42.77;27.30;;;1.80;99.90;;;;;;5019273;28;20195;-64
2021/12/03 07:05:29;;;;;;;50.23;28.83;;;1.80;99.90;;;;;;5019657;28;20187;-64
2021/12/03 07:07:55;;;;;;;45.00;26.10;;;1.80;99.90;;;;;;5001705;28;20559;-64
2021/12/03 07:10:21;;;;;;;50.03;28.33;;;1.90;99.90;;;;;;5019858;28;20589;-63
2021/12/03 07:12:47;;;;;;;42.67;24.77;;;1.90;99.90;;;;;;5016795;28;20199;-63
2021/12/03 07:15:13;;;;;;;40.53;24.70;;;1.90;99.90;;;;;;5016220;28;20298;-63
2021/12/03 07:17:39;;;;;;;39.00;23.37;;;1.90;99.90;;;;;;4998652;28;20183;-63
2021/12/03 07:20:07;;;;;;;38.83;23.33;;;1.90;99.90;;;;;;5016269;28;20630;-63
2021/12/03 07:22:33;;;;;;;41.60;24.10;;;1.90;99.90;;;;;;4998543;28;20591;-63
2021/12/03 07:24:58;;;;;;;43.80;26.73;;;1.90;99.90;;;;;;5016580;28;20180;-63
2021/12/03 07:27:25;;;;;;;36.70;23.20;;;1.90;99.90;;;;;;5016232;28;20191;-63
2021/12/03 07:29:51;;;;;;;45.27;24.13;;;2.00;99.90;;;;;;5016012;28;20594;-63
2021/12/03 07:32:21;;;;;;;46.57;25.53;;;2.00;99.90;;;;;;5015888;28;20199;-63
2021/12/03 07:34:47;;;;;;;46.57;25.17;;;2.00;99.90;;;;;;5016153;28;20219;-63
2021/12/03 07:37:14;;;;;;;42.23;25.63;;;2.00;99.90;;;;;;5015874;28;20182;-63
2021/12/03 07:39:40;;;;;;;41.27;24.90;;;2.10;99.90;;;;;;5015810;28;20602;-63
2021/12/03 07:42:06;;;;;;;45.67;25.37;;;2.10;99.90;;;;;;5015961;28;20196;-63
2021/12/03 07:44:33;;;;;;;41.63;23.83;;;2.10;99.90;;;;;;4998107;28;20190;-63
2021/12/03 07:46:59;;;;;;;50.07;27.07;;;2.10;99.90;;;;;;5015641;28;20711;-63
2021/12/03 07:49:26;;;;;;;53.63;26.80;;;2.10;99.90;;;;;;4998048;28;20190;-63
2021/12/03 07:51:53;;;;;;;44.83;25.40;;;2.10;99.90;;;;;;5015773;28;20196;-63
2021/12/03 07:54:19;;;;;;;48.33;26.67;;;2.10;99.90;;;;;;5015776;28;20176;-63
2021/12/03 07:56:45;;;;;;;49.97;26.20;;;2.10;99.90;;;;;;4997935;28;20198;-63
2021/12/03 07:59:11;;;;;;;44.33;26.33;;;2.10;99.90;;;;;;5015412;28;20176;-63
2021/12/03 08:01:40;;;;;;;49.00;26.33;;;2.10;99.90;;;;;;4997715;28;20207;-63
2021/12/03 08:04:05;;;;;;;53.73;28.13;;;2.10;99.90;;;;;;5015264;28;20678;-63
2021/12/03 08:06:31;;;;;;;45.00;26.37;;;2.10;99.90;;;;;;5015496;28;20207;-63
2021/12/03 08:08:57;;;;;;;50.33;26.93;;;2.10;99.90;;;;;;4997746;28;20259;-63
2021/12/03 08:11:22;;;;;;;45.50;27.53;;;2.20;99.90;;;;;;5015675;28;20254;-63
2021/12/03 08:13:48;;;;;;;51.70;29.27;;;2.20;99.90;;;;;;5015426;28;20612;-63
2021/12/03 08:16:14;;;;;;;44.73;25.83;;;2.20;99.90;;;;;;5015099;28;20200;-63
2021/12/03 08:18:39;;;;;;;43.63;27.40;;;2.20;99.90;;;;;;5015073;28;20175;-63
2021/12/03 08:21:05;;;;;;;42.77;26.20;;;2.20;99.90;;;;;;5014987;28;20195;-63
2021/12/03 08:23:32;;;;;;;52.63;27.40;;;2.20;99.90;;;;;;4996997;28;20176;-63
2021/12/03 08:25:58;;;;;;;48.07;26.97;;;2.20;99.90;;;;;;5014898;28;20198;-63
2021/12/03 08:28:23;;;;;;;48.20;26.73;;;2.20;99.90;;;;;;5014881;28;20650;-63
2021/12/03 08:30:49;;;;;;;57.40;27.67;;;2.20;99.90;;;;;;5014731;28;20176;-63
2021/12/03 08:33:16;;;;;;;45.73;26.77;;;2.20;99.90;;;;;;5014996;28;20184;-63
2021/12/03 08:35:41;;;;;;;48.37;26.20;;;2.20;99.90;;;;;;5014665;28;20208;-63
2021/12/03 08:38:07;;;;;;;49.60;26.20;;;2.30;99.90;;;;;;5014714;28;20262;-63
2021/12/03 08:40:33;;;;;;;45.03;26.37;;;2.30;99.90;;;;;;5014813;28;20172;-63
2021/12/03 08:42:59;;;;;;;44.37;25.40;;;2.30;99.90;;;;;;4997099;28;20176;-63
2021/12/03 08:45:25;;;;;;;43.23;25.63;;;2.30;99.90;;;;;;5014827;28;20183;-63
2021/12/03 08:47:57;;;;;;;39.73;24.17;;;2.30;99.90;;;;;;5014491;28;20171;-63
2021/12/03 08:50:48;;;;;;;40.77;24.30;;;2.40;99.90;;;;;;5014782;28;20214;-63
2021/12/03 08:55:46;;;;;;;35.47;22.77;;;2.40;99.90;;;;;;5014362;28;20264;-63
2021/12/03 08:58:13;;;;;;;38.43;23.13;;;2.50;99.90;;;;;;5014380;28;20180;-63
2021/12/03 09:00:40;;;;;;;38.13;21.83;;;2.50;99.90;;;;;;5014567;28;20215;-63
2021/12/03 09:03:07;;;;;;;38.43;21.87;;;2.50;99.90;;;;;;5014410;28;20210;-64
2021/12/03 09:05:35;;;;;;;35.20;21.07;;;2.60;99.90;;;;;;5014500;28;20700;-63
2021/12/03 09:08:01;;;;;;;40.47;22.87;;;2.60;99.90;;;;;;5014153;28;20176;-63
2021/12/03 09:10:27;;;;;;;40.17;21.07;;;2.60;99.90;;;;;;5014143;28;20276;-63
2021/12/03 09:12:53;;;;;;;30.67;19.10;;;2.60;99.90;;;;;;5014223;28;20206;-63
2021/12/03 09:15:26;;;;;;;34.07;20.57;;;2.60;99.90;;;;;;5013929;28;20211;-63
2021/12/03 09:18:15;;;;;;;25.70;17.87;;;2.70;99.90;;;;;;5014020;28;20200;-63
2021/12/03 09:20:47;;;;;;;27.53;16.43;;;2.70;99.90;;;;;;5014185;28;20176;-63
2021/12/03 09:23:19;;;;;;;32.33;15.73;;;2.70;99.90;;;;;;5014483;28;20156;-63
2021/12/03 09:25:53;;;;;;;20.13;15.50;;;2.70;99.90;;;;;;5014221;28;20160;-63
2021/12/03 09:28:19;;;;;;;22.80;12.53;;;2.70;99.90;;;;;;5014193;28;20530;-63
2021/12/03 09:30:47;;;;;;;22.77;14.00;;;2.70;99.90;;;;;;5014013;28;20198;-63
2021/12/03 09:33:17;;;;;;;19.67;12.87;;;2.70;99.90;;;;;;5013737;28;20692;-63
2021/12/03 09:35:49;;;;;;;20.43;13.83;;;2.70;99.90;;;;;;5013029;28;20232;-63
2021/12/03 09:38:14;;;;;;;19.77;11.87;;;2.70;99.90;;;;;;5014044;28;20585;-63
2021/12/03 09:40:41;;;;;;;20.23;12.03;;;2.70;99.90;;;;;;5013585;28;20171;-63
2021/12/03 09:43:08;;;;;;;16.13;12.67;;;2.70;99.90;;;;;;5013693;28;20211;-63
2021/12/03 09:45:35;;;;;;;17.13;11.40;;;2.70;99.90;;;;;;5013925;28;20520;-63
2021/12/03 09:48:11;;;;;;;22.70;12.10;;;2.80;99.90;;;;;;5013575;28;20554;-63
2021/12/03 09:50:39;;;;;;;22.97;12.03;;;2.80;99.90;;;;;;5013532;28;20251;-64
2021/12/03 09:54:01;;;;;;;17.97;10.70;;;2.80;99.90;;;;;;5013797;28;20230;-63
2021/12/03 09:55:57;;;;;;;17.17;11.60;;;2.80;99.90;;;;;;5010321;28;20222;-63
2021/12/03 10:01:04;;;;;;;18.60;10.10;;;2.90;99.90;;;;;;5013463;28;20187;-63
2021/12/03 10:15:06;;;;;;;12.43;9.70;;;3.10;99.90;;;;;;5013239;28;20200;-63
2021/12/03 10:17:45;;;;;;;17.43;10.33;;;3.10;99.90;;;;;;5013289;28;20638;-63
2021/12/03 10:37:56;;;;;;;16.10;8.00;;;3.40;99.90;;;;;;4969704;28;20195;-63
2021/12/03 10:46:06;;;;;;;12.07;8.60;;;3.40;99.90;;;;;;5013356;28;20160;-63
2021/12/03 10:48:44;;;;;;;12.83;8.43;;;3.50;99.90;;;;;;4998609;28;20530;-63
2021/12/03 10:54:08;;;;;;;11.87;8.30;;;3.50;99.90;;;;;;5017236;28;20611;-63
2021/12/03 11:40:51;;;;;;;10.87;7.67;;;3.60;99.90;;;;;;5016132;28;20618;-62
2021/12/03 12:25:11;;;;;;;12.40;7.77;;;3.60;99.90;;;;;;5015254;28;20222;-63
2021/12/03 12:42:55;;;;;;;13.40;7.97;;;3.60;99.90;;;;;;5014889;28;20664;-63
2021/12/03 13:02:53;;;;;;;14.70;7.50;;;3.60;99.90;;;;;;5014796;28;20262;-64
2021/12/03 13:23:41;;;;;;;9.37;7.13;;;3.80;99.90;;;;;;5013910;28;20188;-64
2021/12/03 14:00:27;;;;;;;7.10;6.40;;;3.90;99.90;;;;;;5013491;28;20156;-63
2021/12/03 14:53:15;;;;;;;9.97;6.73;;;3.80;99.90;;;;;;5016774;28;20196;-62
2021/12/03 14:55:46;;;;;;;7.10;6.40;;;3.80;99.90;;;;;;5017207;28;20187;-62
2021/12/03 14:58:15;;;;;;;7.40;6.50;;;3.80;99.90;;;;;;5016766;28;20160;-62
2021/12/03 15:08:32;;;;;;;7.50;6.70;;;3.80;99.90;;;;;;5017086;28;20175;-62
2021/12/03 15:30:06;;;;;;;10.73;7.27;;;3.70;99.90;;;;;;4993694;28;20191;-62
2021/12/03 15:32:15;;;;;;;8.37;7.43;;;3.70;99.90;;;;;;5014158;28;20214;-65
2021/12/03 15:34:56;;;;;;;15.53;7.97;;;3.70;99.90;;;;;;5014810;28;20227;-65
2021/12/03 15:40:36;;;;;;;10.23;7.43;;;3.60;99.90;;;;;;5016276;28;20163;-63
2021/12/03 16:04:35;;;;;;;9.77;7.40;;;3.50;99.90;;;;;;5015322;28;20567;-64
2021/12/03 16:52:13;;;;;;;8.13;6.80;;;3.10;99.90;;;;;;5014469;28;20199;-61
2021/12/03 16:54:45;;;;;;;8.67;7.77;;;3.10;99.90;;;;;;5014680;28;20171;-62
2021/12/03 16:57:12;;;;;;;9.50;7.20;;;3.10;99.90;;;;;;5014450;28;20156;-61
2021/12/03 16:59:41;;;;;;;7.50;6.90;;;3.10;99.90;;;;;;5014548;28;20183;-62
2021/12/03 17:02:14;;;;;;;8.60;7.10;;;3.10;99.90;;;;;;5014574;28;20200;-62
2021/12/03 17:05:21;;;;;;;7.60;6.90;;;3.10;99.90;;;;;;5014235;28;20564;-61
2021/12/03 17:58:34;;;;;;;7.97;7.17;;;3.10;99.90;;;;;;5013515;28;20162;-62
2021/12/03 18:01:12;;;;;;;8.13;7.33;;;3.10;99.90;;;;;;4995974;28;20666;-62
2021/12/03 18:03:50;;;;;;;8.70;7.60;;;3.10;99.90;;;;;;5013536;28;20203;-62
2021/12/03 18:44:39;;;;;;;8.87;7.90;;;3.10;99.90;;;;;;5013225;28;20260;-60
2021/12/03 18:52:19;;;;;;;8.57;7.83;;;3.10;99.90;;;;;;5013248;28;20669;-61
2021/12/03 18:57:18;;;;;;;8.77;7.87;;;3.10;99.90;;;;;;5013365;28;20606;-61
2021/12/03 18:59:55;;;;;;;10.40;8.43;;;3.10;99.90;;;;;;5013321;28;20168;-61
2021/12/03 19:02:24;;;;;;;8.77;7.90;;;3.10;99.90;;;;;;5013065;28;20202;-61
2021/12/03 19:05:30;;;;;;;10.97;8.60;;;3.10;99.90;;;;;;5012918;28;20251;-61
2021/12/03 19:07:47;;;;;;;11.43;9.67;;;3.20;99.90;;;;;;5009143;28;20716;-61
2021/12/03 19:10:23;;;;;;;9.23;8.07;;;3.20;99.90;;;;;;5016367;28;20192;-61
2021/12/03 19:13:49;;;;;;;8.30;7.60;;;3.20;99.90;;;;;;4998786;28;20246;-61
2021/12/03 19:15:44;;;;;;;8.97;7.93;;;3.20;99.90;;;;;;4999194;28;20629;-62
2021/12/03 19:18:10;;;;;;;7.43;6.93;;;3.20;99.90;;;;;;5016346;28;20718;-62
2021/12/03 19:20:40;;;;;;;8.67;7.90;;;3.20;99.90;;;;;;5016256;28;20206;-62
2021/12/03 19:23:08;;;;;;;8.37;7.67;;;3.20;99.90;;;;;;5016639;28;20244;-61
2021/12/03 19:25:35;;;;;;;12.33;7.43;;;3.20;99.90;;;;;;5001646;28;20266;-65
2021/12/03 19:28:01;;;;;;;9.57;8.13;;;3.20;99.90;;;;;;5017142;28;20184;-62
2021/12/03 19:30:26;;;;;;;8.57;7.87;;;3.30;99.90;;;;;;5017233;28;20624;-62
2021/12/03 19:32:53;;;;;;;7.83;7.23;;;3.30;99.90;;;;;;5016683;28;20199;-64
2021/12/03 19:35:19;;;;;;;8.50;7.70;;;3.30;99.90;;;;;;4998617;28;20566;-64
2021/12/03 19:37:49;;;;;;;11.07;9.00;;;3.30;99.90;;;;;;5016091;28;20160;-65
2021/12/03 19:40:15;;;;;;;12.07;9.63;;;3.30;99.90;;;;;;5016334;28;20179;-67
2021/12/03 19:42:56;;;;;;;8.10;7.33;;;3.30;99.90;;;;;;5016346;28;20191;-67
2021/12/03 19:45:24;;;;;;;8.83;8.00;;;3.30;99.90;;;;;;5016850;28;20262;-65
2021/12/03 19:48:03;;;;;;;8.57;7.77;;;3.30;99.90;;;;;;4998698;28;20179;-66
2021/12/03 19:50:40;;;;;;;9.53;8.20;;;3.20;99.90;;;;;;4999470;28;20693;-61
2021/12/03 19:55:37;;;;;;;8.23;7.53;;;3.30;99.90;;;;;;5016030;28;20195;-62
2021/12/03 19:58:07;;;;;;;7.67;6.97;;;3.30;99.90;;;;;;4998525;28;20539;-62
2021/12/03 20:00:33;;;;;;;8.30;7.50;;;3.30;99.90;;;;;;5017096;28;20251;-65
2021/12/03 20:02:59;;;;;;;8.57;7.60;;;3.30;99.90;;;;;;5015814;28;20222;-62
2021/12/03 20:05:25;;;;;;;8.33;7.53;;;3.30;99.90;;;;;;5015608;28;20188;-63
2021/12/03 20:07:55;;;;;;;8.27;7.47;;;3.30;99.90;;;;;;5015773;28;20215;-66
2021/12/03 20:10:24;;;;;;;7.17;6.63;;;3.30;99.90;;;;;;5015608;28;20222;-62
2021/12/03 20:12:50;;;;;;;8.63;7.90;;;3.40;99.90;;;;;;5015324;28;20199;-62
2021/12/03 20:15:30;;;;;;;7.50;6.90;;;3.40;99.90;;;;;;5015263;28;20199;-62
2021/12/03 20:18:08;;;;;;;8.13;7.37;;;3.40;99.90;;;;;;5016209;28;20576;-64
2021/12/03 20:20:34;;;;;;;7.33;6.73;;;3.40;99.90;;;;;;5015504;28;20188;-62